Startpagina
METAR-TAF:

METAR-TAF

Vliegvelden :

Kariba, Zimbabwe

breedte: 16-31S, lengte: 028-53E, hoogte: 518 m

Actueel weer

Dit bericht is 25 uur en het 13 minuten geleden gemaakt, om 04:00 UTC
Weinig wind
Temperatuur 13°C
Vochtigheid 72%
Druk 1025 hPa
Zicht 10 km of meer
geen wolken onder 1500 m en geen cumulonimbus

METAR: FVKB 120400Z 00000KT CAVOK 13/08 Q1025 NOSIG

Tijdstip: 07:13 (05:13 UTC)


TAF: ontbreekt

Waarnemingen en weersverwachtingen van meer dan 4000 vliegvelden (METAR en TAF).

De beschikbare stations zijn de gele en rode punten op de kaart.

Ga met uw muis naar het station om de naam te zien.

Klik dan om waarnemingen en weersverwachtingen te zien.

kaart wijzigen: klik op de groene knoppen met een zwart kruis om in te zoomen, op de groene knop met een streepje om uit te zoomen of op de groene pijlen voor aangrenzende kaarten.


METAR-TAF: